sensor_id;sensor_type;location;lat;lon;timestamp;P1;durP1;ratioP1;P2;durP2;ratioP2
4555;SDS011;2290;48.674;9.018;2024-01-16T00:00:52;4.93;;;2.83;;
4555;SDS011;2290;48.674;9.018;2024-01-16T00:03:19;4.53;;;2.80;;
4555;SDS011;2290;48.674;9.018;2024-01-16T00:05:49;3.90;;;2.27;;
4555;SDS011;2290;48.674;9.018;2024-01-16T00:08:17;4.73;;;2.93;;
4555;SDS011;2290;48.674;9.018;2024-01-16T00:10:43;6.37;;;2.83;;
4555;SDS011;2290;48.674;9.018;2024-01-16T00:13:11;5.70;;;3.70;;
4555;SDS011;2290;48.674;9.018;2024-01-16T00:15:37;6.13;;;2.77;;
4555;SDS011;2290;48.674;9.018;2024-01-16T00:18:09;5.23;;;2.37;;
4555;SDS011;2290;48.674;9.018;2024-01-16T00:20:36;7.10;;;3.10;;
4555;SDS011;2290;48.674;9.018;2024-01-16T00:23:03;7.90;;;2.60;;
4555;SDS011;2290;48.674;9.018;2024-01-16T00:25:36;3.50;;;2.40;;
4555;SDS011;2290;48.674;9.018;2024-01-16T00:28:06;5.20;;;2.80;;
4555;SDS011;2290;48.674;9.018;2024-01-16T00:30:34;3.53;;;2.50;;
4555;SDS011;2290;48.674;9.018;2024-01-16T00:33:00;8.33;;;2.80;;
4555;SDS011;2290;48.674;9.018;2024-01-16T00:35:26;4.43;;;3.00;;
4555;SDS011;2290;48.674;9.018;2024-01-16T00:37:54;5.20;;;3.23;;
4555;SDS011;2290;48.674;9.018;2024-01-16T00:40:24;3.17;;;2.00;;
4555;SDS011;2290;48.674;9.018;2024-01-16T00:42:50;6.07;;;2.40;;
4555;SDS011;2290;48.674;9.018;2024-01-16T00:45:19;5.03;;;2.97;;
4555;SDS011;2290;48.674;9.018;2024-01-16T00:47:49;4.30;;;3.00;;
4555;SDS011;2290;48.674;9.018;2024-01-16T00:50:30;6.03;;;3.30;;
4555;SDS011;2290;48.674;9.018;2024-01-16T00:52:56;4.70;;;2.70;;
4555;SDS011;2290;48.674;9.018;2024-01-16T00:55:23;5.77;;;2.70;;
4555;SDS011;2290;48.674;9.018;2024-01-16T00:57:51;5.00;;;2.63;;
4555;SDS011;2290;48.674;9.018;2024-01-16T01:00:25;5.90;;;3.90;;
4555;SDS011;2290;48.674;9.018;2024-01-16T01:02:53;4.07;;;2.83;;
4555;SDS011;2290;48.674;9.018;2024-01-16T01:05:20;6.57;;;3.47;;
4555;SDS011;2290;48.674;9.018;2024-01-16T01:07:48;5.33;;;3.93;;
4555;SDS011;2290;48.674;9.018;2024-01-16T01:10:15;3.73;;;2.33;;
4555;SDS011;2290;48.674;9.018;2024-01-16T01:12:45;6.30;;;2.80;;
4555;SDS011;2290;48.674;9.018;2024-01-16T01:15:15;3.47;;;2.67;;
4555;SDS011;2290;48.674;9.018;2024-01-16T01:17:40;5.07;;;2.50;;
4555;SDS011;2290;48.674;9.018;2024-01-16T01:20:10;2.37;;;1.83;;
4555;SDS011;2290;48.674;9.018;2024-01-16T01:22:37;5.80;;;2.97;;
4555;SDS011;2290;48.674;9.018;2024-01-16T01:25:04;7.23;;;2.60;;
4555;SDS011;2290;48.674;9.018;2024-01-16T01:27:35;7.50;;;2.77;;
4555;SDS011;2290;48.674;9.018;2024-01-16T01:30:02;4.43;;;2.40;;
4555;SDS011;2290;48.674;9.018;2024-01-16T01:32:29;10.23;;;2.83;;
4555;SDS011;2290;48.674;9.018;2024-01-16T01:34:55;5.97;;;2.87;;
4555;SDS011;2290;48.674;9.018;2024-01-16T01:37:22;4.10;;;2.90;;
4555;SDS011;2290;48.674;9.018;2024-01-16T01:39:48;4.80;;;2.90;;
4555;SDS011;2290;48.674;9.018;2024-01-16T01:42:18;4.50;;;2.57;;
4555;SDS011;2290;48.674;9.018;2024-01-16T01:44:48;12.87;;;2.63;;
4555;SDS011;2290;48.674;9.018;2024-01-16T01:47:21;3.40;;;2.40;;
4555;SDS011;2290;48.674;9.018;2024-01-16T01:49:49;4.00;;;2.07;;
4555;SDS011;2290;48.674;9.018;2024-01-16T01:52:15;5.00;;;2.30;;
4555;SDS011;2290;48.674;9.018;2024-01-16T01:54:46;4.63;;;2.80;;
4555;SDS011;2290;48.674;9.018;2024-01-16T01:57:14;6.50;;;2.90;;
4555;SDS011;2290;48.674;9.018;2024-01-16T01:59:42;5.43;;;3.10;;
4555;SDS011;2290;48.674;9.018;2024-01-16T02:02:08;4.33;;;2.83;;
4555;SDS011;2290;48.674;9.018;2024-01-16T02:04:37;4.90;;;2.40;;
4555;SDS011;2290;48.674;9.018;2024-01-16T02:07:09;5.80;;;3.10;;
4555;SDS011;2290;48.674;9.018;2024-01-16T02:09:57;5.83;;;2.70;;
4555;SDS011;2290;48.674;9.018;2024-01-16T02:12:29;6.20;;;3.03;;
4555;SDS011;2290;48.674;9.018;2024-01-16T02:15:00;4.03;;;2.70;;
4555;SDS011;2290;48.674;9.018;2024-01-16T02:18:18;4.33;;;2.43;;
4555;SDS011;2290;48.674;9.018;2024-01-16T02:21:25;4.30;;;2.80;;
4555;SDS011;2290;48.674;9.018;2024-01-16T02:23:53;2.90;;;2.50;;
4555;SDS011;2290;48.674;9.018;2024-01-16T02:26:22;5.17;;;3.00;;
4555;SDS011;2290;48.674;9.018;2024-01-16T02:28:54;5.47;;;2.57;;
4555;SDS011;2290;48.674;9.018;2024-01-16T02:31:22;3.30;;;2.10;;
4555;SDS011;2290;48.674;9.018;2024-01-16T02:34:01;4.87;;;2.80;;
4555;SDS011;2290;48.674;9.018;2024-01-16T02:36:29;5.00;;;2.93;;
4555;SDS011;2290;48.674;9.018;2024-01-16T02:39:04;2.90;;;2.20;;
4555;SDS011;2290;48.674;9.018;2024-01-16T02:41:35;3.27;;;2.43;;
4555;SDS011;2290;48.674;9.018;2024-01-16T02:44:06;5.00;;;3.27;;
4555;SDS011;2290;48.674;9.018;2024-01-16T02:46:41;4.43;;;2.50;;
4555;SDS011;2290;48.674;9.018;2024-01-16T02:49:12;3.40;;;2.50;;
4555;SDS011;2290;48.674;9.018;2024-01-16T02:51:43;4.50;;;2.93;;
4555;SDS011;2290;48.674;9.018;2024-01-16T02:54:14;4.97;;;2.60;;
4555;SDS011;2290;48.674;9.018;2024-01-16T02:56:48;3.77;;;2.53;;
4555;SDS011;2290;48.674;9.018;2024-01-16T02:59:18;2.33;;;2.10;;
4555;SDS011;2290;48.674;9.018;2024-01-16T03:01:46;3.90;;;2.53;;
4555;SDS011;2290;48.674;9.018;2024-01-16T03:04:12;4.97;;;2.37;;
4555;SDS011;2290;48.674;9.018;2024-01-16T03:06:40;4.33;;;2.53;;
4555;SDS011;2290;48.674;9.018;2024-01-16T03:09:08;6.70;;;2.70;;
4555;SDS011;2290;48.674;9.018;2024-01-16T03:11:38;2.77;;;2.30;;
4555;SDS011;2290;48.674;9.018;2024-01-16T03:14:12;4.37;;;2.60;;
4555;SDS011;2290;48.674;9.018;2024-01-16T03:16:39;4.70;;;2.73;;
4555;SDS011;2290;48.674;9.018;2024-01-16T03:19:12;4.10;;;2.67;;
4555;SDS011;2290;48.674;9.018;2024-01-16T03:21:43;5.97;;;2.73;;
4555;SDS011;2290;48.674;9.018;2024-01-16T03:24:10;8.83;;;2.80;;
4555;SDS011;2290;48.674;9.018;2024-01-16T03:26:40;6.43;;;2.67;;
4555;SDS011;2290;48.674;9.018;2024-01-16T03:29:08;3.90;;;2.43;;
4555;SDS011;2290;48.674;9.018;2024-01-16T03:31:37;5.23;;;3.10;;
4555;SDS011;2290;48.674;9.018;2024-01-16T03:34:04;6.17;;;2.80;;
4555;SDS011;2290;48.674;9.018;2024-01-16T03:36:39;3.40;;;2.40;;
4555;SDS011;2290;48.674;9.018;2024-01-16T03:39:05;3.03;;;2.07;;
4555;SDS011;2290;48.674;9.018;2024-01-16T03:41:37;3.57;;;2.50;;
4555;SDS011;2290;48.674;9.018;2024-01-16T03:44:10;3.57;;;2.80;;
4555;SDS011;2290;48.674;9.018;2024-01-16T03:46:38;5.40;;;2.40;;
4555;SDS011;2290;48.674;9.018;2024-01-16T03:49:13;8.50;;;2.27;;
4555;SDS011;2290;48.674;9.018;2024-01-16T03:51:43;3.50;;;2.47;;
4555;SDS011;2290;48.674;9.018;2024-01-16T03:54:14;5.47;;;2.67;;
4555;SDS011;2290;48.674;9.018;2024-01-16T03:56:40;3.50;;;2.50;;
4555;SDS011;2290;48.674;9.018;2024-01-16T03:59:07;4.53;;;2.53;;
4555;SDS011;2290;48.674;9.018;2024-01-16T04:01:38;5.40;;;2.63;;
4555;SDS011;2290;48.674;9.018;2024-01-16T04:04:05;3.60;;;2.50;;
4555;SDS011;2290;48.674;9.018;2024-01-16T04:06:37;3.83;;;2.40;;
4555;SDS011;2290;48.674;9.018;2024-01-16T04:09:05;3.40;;;1.90;;
4555;SDS011;2290;48.674;9.018;2024-01-16T04:11:31;8.30;;;2.63;;
4555;SDS011;2290;48.674;9.018;2024-01-16T04:13:59;5.63;;;2.60;;
4555;SDS011;2290;48.674;9.018;2024-01-16T04:16:26;4.77;;;3.23;;
4555;SDS011;2290;48.674;9.018;2024-01-16T04:18:52;7.73;;;2.50;;
4555;SDS011;2290;48.674;9.018;2024-01-16T04:21:21;2.70;;;2.40;;
4555;SDS011;2290;48.674;9.018;2024-01-16T04:23:47;4.97;;;1.90;;
4555;SDS011;2290;48.674;9.018;2024-01-16T04:26:14;3.13;;;2.10;;
4555;SDS011;2290;48.674;9.018;2024-01-16T04:28:40;4.00;;;2.43;;
4555;SDS011;2290;48.674;9.018;2024-01-16T04:31:10;7.30;;;3.10;;
4555;SDS011;2290;48.674;9.018;2024-01-16T04:33:37;2.90;;;2.00;;
4555;SDS011;2290;48.674;9.018;2024-01-16T04:36:11;5.20;;;2.60;;
4555;SDS011;2290;48.674;9.018;2024-01-16T04:38:37;4.77;;;2.63;;
4555;SDS011;2290;48.674;9.018;2024-01-16T04:41:02;2.40;;;2.20;;
4555;SDS011;2290;48.674;9.018;2024-01-16T04:43:28;4.40;;;2.43;;
4555;SDS011;2290;48.674;9.018;2024-01-16T04:45:55;2.53;;;1.90;;
4555;SDS011;2290;48.674;9.018;2024-01-16T04:48:25;2.37;;;2.03;;
4555;SDS011;2290;48.674;9.018;2024-01-16T04:50:53;6.53;;;3.00;;
4555;SDS011;2290;48.674;9.018;2024-01-16T04:53:21;4.03;;;2.37;;
4555;SDS011;2290;48.674;9.018;2024-01-16T04:55:52;3.93;;;2.43;;
4555;SDS011;2290;48.674;9.018;2024-01-16T04:58:18;4.80;;;2.83;;
4555;SDS011;2290;48.674;9.018;2024-01-16T05:00:44;4.50;;;2.80;;
4555;SDS011;2290;48.674;9.018;2024-01-16T05:03:10;2.87;;;2.37;;
4555;SDS011;2290;48.674;9.018;2024-01-16T05:05:36;1.73;;;1.60;;
4555;SDS011;2290;48.674;9.018;2024-01-16T05:08:02;5.53;;;2.30;;
4555;SDS011;2290;48.674;9.018;2024-01-16T05:10:30;2.80;;;2.20;;
4555;SDS011;2290;48.674;9.018;2024-01-16T05:12:56;3.57;;;2.60;;
4555;SDS011;2290;48.674;9.018;2024-01-16T05:15:22;3.27;;;2.13;;
4555;SDS011;2290;48.674;9.018;2024-01-16T05:17:48;4.57;;;2.57;;
4555;SDS011;2290;48.674;9.018;2024-01-16T05:20:16;3.80;;;2.20;;
4555;SDS011;2290;48.674;9.018;2024-01-16T05:22:45;4.80;;;2.13;;
4555;SDS011;2290;48.674;9.018;2024-01-16T05:25:13;5.17;;;1.93;;
4555;SDS011;2290;48.674;9.018;2024-01-16T05:27:40;4.23;;;2.13;;
4555;SDS011;2290;48.674;9.018;2024-01-16T05:30:10;2.70;;;2.03;;
4555;SDS011;2290;48.674;9.018;2024-01-16T05:32:36;5.60;;;2.23;;
4555;SDS011;2290;48.674;9.018;2024-01-16T05:35:09;3.43;;;2.00;;
4555;SDS011;2290;48.674;9.018;2024-01-16T05:37:39;2.07;;;1.70;;
4555;SDS011;2290;48.674;9.018;2024-01-16T05:40:09;5.40;;;2.67;;
4555;SDS011;2290;48.674;9.018;2024-01-16T05:42:35;6.60;;;2.23;;
4555;SDS011;2290;48.674;9.018;2024-01-16T05:45:03;3.83;;;2.13;;
4555;SDS011;2290;48.674;9.018;2024-01-16T05:47:35;3.30;;;2.13;;
4555;SDS011;2290;48.674;9.018;2024-01-16T05:50:04;2.67;;;2.17;;
4555;SDS011;2290;48.674;9.018;2024-01-16T05:52:32;4.13;;;2.30;;
4555;SDS011;2290;48.674;9.018;2024-01-16T05:54:58;3.40;;;1.77;;
4555;SDS011;2290;48.674;9.018;2024-01-16T05:57:28;3.27;;;2.80;;
4555;SDS011;2290;48.674;9.018;2024-01-16T06:00:07;2.90;;;2.03;;
4555;SDS011;2290;48.674;9.018;2024-01-16T06:02:34;2.80;;;2.03;;
4555;SDS011;2290;48.674;9.018;2024-01-16T06:05:05;2.30;;;1.70;;
4555;SDS011;2290;48.674;9.018;2024-01-16T06:07:34;3.20;;;2.37;;
4555;SDS011;2290;48.674;9.018;2024-01-16T06:10:00;2.20;;;1.60;;
4555;SDS011;2290;48.674;9.018;2024-01-16T06:12:27;5.57;;;2.10;;
4555;SDS011;2290;48.674;9.018;2024-01-16T06:14:52;5.07;;;2.30;;
4555;SDS011;2290;48.674;9.018;2024-01-16T06:17:18;4.43;;;2.30;;
4555;SDS011;2290;48.674;9.018;2024-01-16T06:19:53;5.60;;;2.23;;
4555;SDS011;2290;48.674;9.018;2024-01-16T06:26:21;5.33;;;2.60;;
4555;SDS011;2290;48.674;9.018;2024-01-16T06:28:49;4.27;;;2.83;;
4555;SDS011;2290;48.674;9.018;2024-01-16T06:31:17;3.40;;;1.93;;
4555;SDS011;2290;48.674;9.018;2024-01-16T06:34:06;3.83;;;2.00;;
4555;SDS011;2290;48.674;9.018;2024-01-16T06:36:33;5.00;;;2.47;;
4555;SDS011;2290;48.674;9.018;2024-01-16T06:39:02;2.50;;;1.80;;
4555;SDS011;2290;48.674;9.018;2024-01-16T06:41:29;4.17;;;2.43;;
4555;SDS011;2290;48.674;9.018;2024-01-16T06:43:56;2.53;;;2.20;;
4555;SDS011;2290;48.674;9.018;2024-01-16T06:46:30;5.30;;;2.20;;
4555;SDS011;2290;48.674;9.018;2024-01-16T06:50:02;2.03;;;1.70;;
4555;SDS011;2290;48.674;9.018;2024-01-16T06:52:31;4.53;;;1.93;;
4555;SDS011;2290;48.674;9.018;2024-01-16T06:54:58;2.97;;;2.00;;
4555;SDS011;2290;48.674;9.018;2024-01-16T06:57:26;3.77;;;2.63;;
4555;SDS011;2290;48.674;9.018;2024-01-16T07:00:00;4.00;;;2.60;;
4555;SDS011;2290;48.674;9.018;2024-01-16T07:03:37;3.53;;;2.20;;
4555;SDS011;2290;48.674;9.018;2024-01-16T07:06:15;5.37;;;2.00;;
4555;SDS011;2290;48.674;9.018;2024-01-16T07:09:01;3.50;;;2.10;;
4555;SDS011;2290;48.674;9.018;2024-01-16T07:15:26;4.47;;;2.30;;
4555;SDS011;2290;48.674;9.018;2024-01-16T07:17:52;3.80;;;1.93;;
4555;SDS011;2290;48.674;9.018;2024-01-16T07:20:17;2.77;;;1.87;;
4555;SDS011;2290;48.674;9.018;2024-01-16T07:22:44;5.67;;;2.03;;
4555;SDS011;2290;48.674;9.018;2024-01-16T07:25:10;2.63;;;1.90;;
4555;SDS011;2290;48.674;9.018;2024-01-16T07:27:36;3.63;;;1.87;;
4555;SDS011;2290;48.674;9.018;2024-01-16T07:30:04;3.17;;;2.10;;
4555;SDS011;2290;48.674;9.018;2024-01-16T07:32:29;4.53;;;2.07;;
4555;SDS011;2290;48.674;9.018;2024-01-16T07:35:11;1.73;;;1.47;;
4555;SDS011;2290;48.674;9.018;2024-01-16T07:38:57;3.30;;;1.80;;
4555;SDS011;2290;48.674;9.018;2024-01-16T07:42:45;3.47;;;1.50;;
4555;SDS011;2290;48.674;9.018;2024-01-16T07:46:05;3.63;;;2.00;;
4555;SDS011;2290;48.674;9.018;2024-01-16T07:48:32;5.60;;;2.23;;
4555;SDS011;2290;48.674;9.018;2024-01-16T07:50:58;3.37;;;2.17;;
4555;SDS011;2290;48.674;9.018;2024-01-16T07:53:23;3.93;;;2.50;;
4555;SDS011;2290;48.674;9.018;2024-01-16T07:55:52;2.73;;;2.27;;
4555;SDS011;2290;48.674;9.018;2024-01-16T07:58:24;4.13;;;1.80;;
4555;SDS011;2290;48.674;9.018;2024-01-16T08:00:50;2.83;;;2.20;;
4555;SDS011;2290;48.674;9.018;2024-01-16T08:03:17;5.70;;;2.30;;
4555;SDS011;2290;48.674;9.018;2024-01-16T08:05:43;4.47;;;2.20;;
4555;SDS011;2290;48.674;9.018;2024-01-16T08:08:11;4.83;;;2.00;;
4555;SDS011;2290;48.674;9.018;2024-01-16T08:10:38;6.80;;;2.33;;
4555;SDS011;2290;48.674;9.018;2024-01-16T08:13:07;4.03;;;2.37;;
4555;SDS011;2290;48.674;9.018;2024-01-16T08:15:33;2.70;;;2.27;;
4555;SDS011;2290;48.674;9.018;2024-01-16T08:18:05;5.50;;;2.10;;
4555;SDS011;2290;48.674;9.018;2024-01-16T08:20:32;3.40;;;2.37;;
4555;SDS011;2290;48.674;9.018;2024-01-16T08:23:17;3.20;;;2.40;;
4555;SDS011;2290;48.674;9.018;2024-01-16T08:25:43;3.23;;;1.70;;
4555;SDS011;2290;48.674;9.018;2024-01-16T08:28:15;2.87;;;1.97;;
4555;SDS011;2290;48.674;9.018;2024-01-16T08:30:44;3.33;;;2.50;;
4555;SDS011;2290;48.674;9.018;2024-01-16T08:33:13;3.83;;;2.07;;
4555;SDS011;2290;48.674;9.018;2024-01-16T08:35:56;4.57;;;2.30;;
4555;SDS011;2290;48.674;9.018;2024-01-16T08:38:42;2.53;;;1.90;;
4555;SDS011;2290;48.674;9.018;2024-01-16T08:41:07;4.20;;;1.50;;
4555;SDS011;2290;48.674;9.018;2024-01-16T08:43:38;4.30;;;2.83;;
4555;SDS011;2290;48.674;9.018;2024-01-16T08:46:04;2.80;;;2.13;;
4555;SDS011;2290;48.674;9.018;2024-01-16T08:48:31;4.40;;;2.10;;
4555;SDS011;2290;48.674;9.018;2024-01-16T08:50:58;3.73;;;1.80;;
4555;SDS011;2290;48.674;9.018;2024-01-16T08:53:43;4.63;;;2.70;;
4555;SDS011;2290;48.674;9.018;2024-01-16T08:56:54;4.27;;;2.40;;
4555;SDS011;2290;48.674;9.018;2024-01-16T09:00:07;3.50;;;2.10;;
4555;SDS011;2290;48.674;9.018;2024-01-16T09:05:20;3.43;;;2.13;;
4555;SDS011;2290;48.674;9.018;2024-01-16T09:07:50;3.13;;;2.10;;
4555;SDS011;2290;48.674;9.018;2024-01-16T09:10:17;2.70;;;1.90;;
4555;SDS011;2290;48.674;9.018;2024-01-16T09:12:47;3.87;;;2.50;;
4555;SDS011;2290;48.674;9.018;2024-01-16T09:15:22;3.80;;;2.00;;
4555;SDS011;2290;48.674;9.018;2024-01-16T09:18:18;5.93;;;1.70;;
4555;SDS011;2290;48.674;9.018;2024-01-16T09:20:50;4.33;;;2.30;;
4555;SDS011;2290;48.674;9.018;2024-01-16T09:27:34;3.53;;;2.20;;
4555;SDS011;2290;48.674;9.018;2024-01-16T09:31:05;3.53;;;2.13;;
4555;SDS011;2290;48.674;9.018;2024-01-16T09:33:31;2.70;;;1.80;;
4555;SDS011;2290;48.674;9.018;2024-01-16T09:39:37;3.10;;;1.90;;
4555;SDS011;2290;48.674;9.018;2024-01-16T09:42:03;5.80;;;2.20;;
4555;SDS011;2290;48.674;9.018;2024-01-16T09:44:44;3.03;;;2.00;;
4555;SDS011;2290;48.674;9.018;2024-01-16T09:47:30;5.77;;;2.30;;
4555;SDS011;2290;48.674;9.018;2024-01-16T09:49:57;4.23;;;2.30;;
4555;SDS011;2290;48.674;9.018;2024-01-16T09:52:30;3.47;;;2.17;;
4555;SDS011;2290;48.674;9.018;2024-01-16T09:54:56;4.87;;;2.00;;
4555;SDS011;2290;48.674;9.018;2024-01-16T09:57:36;3.40;;;2.20;;
4555;SDS011;2290;48.674;9.018;2024-01-16T10:00:10;4.03;;;1.97;;
4555;SDS011;2290;48.674;9.018;2024-01-16T10:02:41;2.97;;;2.00;;
4555;SDS011;2290;48.674;9.018;2024-01-16T10:05:10;4.40;;;2.30;;
4555;SDS011;2290;48.674;9.018;2024-01-16T10:07:40;2.67;;;2.30;;
4555;SDS011;2290;48.674;9.018;2024-01-16T10:10:11;4.30;;;2.50;;
4555;SDS011;2290;48.674;9.018;2024-01-16T10:12:58;3.83;;;2.23;;
4555;SDS011;2290;48.674;9.018;2024-01-16T10:15:28;3.60;;;2.77;;
4555;SDS011;2290;48.674;9.018;2024-01-16T10:17:54;3.80;;;2.70;;
4555;SDS011;2290;48.674;9.018;2024-01-16T10:20:33;5.10;;;2.47;;
4555;SDS011;2290;48.674;9.018;2024-01-16T10:23:01;4.97;;;2.73;;
4555;SDS011;2290;48.674;9.018;2024-01-16T10:25:29;3.93;;;2.60;;
4555;SDS011;2290;48.674;9.018;2024-01-16T10:28:04;6.50;;;3.03;;
4555;SDS011;2290;48.674;9.018;2024-01-16T10:30:38;3.83;;;2.50;;
4555;SDS011;2290;48.674;9.018;2024-01-16T10:34:02;5.33;;;2.80;;
4555;SDS011;2290;48.674;9.018;2024-01-16T10:36:43;5.67;;;2.50;;
4555;SDS011;2290;48.674;9.018;2024-01-16T10:39:09;3.40;;;2.20;;
4555;SDS011;2290;48.674;9.018;2024-01-16T10:41:35;6.30;;;2.60;;
4555;SDS011;2290;48.674;9.018;2024-01-16T10:44:05;4.97;;;2.57;;
4555;SDS011;2290;48.674;9.018;2024-01-16T10:46:35;3.10;;;2.20;;
4555;SDS011;2290;48.674;9.018;2024-01-16T10:49:02;4.43;;;2.70;;
4555;SDS011;2290;48.674;9.018;2024-01-16T10:51:29;3.87;;;2.47;;
4555;SDS011;2290;48.674;9.018;2024-01-16T10:53:59;3.40;;;2.40;;
4555;SDS011;2290;48.674;9.018;2024-01-16T10:56:28;3.57;;;2.03;;
4555;SDS011;2290;48.674;9.018;2024-01-16T10:58:57;4.90;;;2.70;;
4555;SDS011;2290;48.674;9.018;2024-01-16T11:01:37;2.30;;;2.10;;
4555;SDS011;2290;48.674;9.018;2024-01-16T11:04:04;3.80;;;2.43;;
4555;SDS011;2290;48.674;9.018;2024-01-16T11:06:31;4.13;;;2.30;;
4555;SDS011;2290;48.674;9.018;2024-01-16T11:08:58;3.60;;;2.10;;
4555;SDS011;2290;48.674;9.018;2024-01-16T11:11:25;8.20;;;2.87;;
4555;SDS011;2290;48.674;9.018;2024-01-16T11:13:53;5.50;;;2.40;;
4555;SDS011;2290;48.674;9.018;2024-01-16T11:16:20;3.10;;;2.53;;
4555;SDS011;2290;48.674;9.018;2024-01-16T11:18:47;3.50;;;1.93;;
4555;SDS011;2290;48.674;9.018;2024-01-16T11:21:13;3.50;;;2.53;;
4555;SDS011;2290;48.674;9.018;2024-01-16T11:23:40;3.07;;;2.27;;
4555;SDS011;2290;48.674;9.018;2024-01-16T11:26:25;5.80;;;3.00;;
4555;SDS011;2290;48.674;9.018;2024-01-16T11:28:53;4.03;;;2.57;;
4555;SDS011;2290;48.674;9.018;2024-01-16T11:33:57;3.70;;;2.10;;
4555;SDS011;2290;48.674;9.018;2024-01-16T11:36:43;3.90;;;2.60;;
4555;SDS011;2290;48.674;9.018;2024-01-16T11:39:22;3.97;;;2.30;;
4555;SDS011;2290;48.674;9.018;2024-01-16T11:41:59;5.30;;;2.50;;
4555;SDS011;2290;48.674;9.018;2024-01-16T11:44:46;2.33;;;2.10;;
4555;SDS011;2290;48.674;9.018;2024-01-16T11:47:21;2.60;;;1.97;;
4555;SDS011;2290;48.674;9.018;2024-01-16T11:49:52;6.17;;;2.63;;
4555;SDS011;2290;48.674;9.018;2024-01-16T11:52:45;2.17;;;1.80;;
4555;SDS011;2290;48.674;9.018;2024-01-16T11:58:04;5.20;;;1.70;;
4555;SDS011;2290;48.674;9.018;2024-01-16T12:01:03;1.40;;;1.30;;
4555;SDS011;2290;48.674;9.018;2024-01-16T12:03:32;1.40;;;1.20;;
4555;SDS011;2290;48.674;9.018;2024-01-16T12:06:01;2.13;;;1.50;;
4555;SDS011;2290;48.674;9.018;2024-01-16T12:08:27;2.83;;;1.30;;
4555;SDS011;2290;48.674;9.018;2024-01-16T12:10:53;2.20;;;1.67;;
4555;SDS011;2290;48.674;9.018;2024-01-16T12:13:19;1.70;;;1.60;;
4555;SDS011;2290;48.674;9.018;2024-01-16T12:15:44;3.60;;;1.40;;
4555;SDS011;2290;48.674;9.018;2024-01-16T12:18:17;4.43;;;1.80;;
4555;SDS011;2290;48.674;9.018;2024-01-16T12:20:43;2.57;;;1.77;;
4555;SDS011;2290;48.674;9.018;2024-01-16T12:23:09;2.17;;;1.50;;
4555;SDS011;2290;48.674;9.018;2024-01-16T12:25:35;1.63;;;1.53;;
4555;SDS011;2290;48.674;9.018;2024-01-16T12:28:05;2.30;;;1.30;;
4555;SDS011;2290;48.674;9.018;2024-01-16T12:33:08;3.37;;;1.43;;
4555;SDS011;2290;48.674;9.018;2024-01-16T12:35:36;5.13;;;1.83;;
4555;SDS011;2290;48.674;9.018;2024-01-16T12:38:06;1.93;;;1.57;;
4555;SDS011;2290;48.674;9.018;2024-01-16T12:40:36;2.53;;;1.50;;
4555;SDS011;2290;48.674;9.018;2024-01-16T12:43:04;4.93;;;1.73;;
4555;SDS011;2290;48.674;9.018;2024-01-16T12:45:30;3.40;;;1.80;;
4555;SDS011;2290;48.674;9.018;2024-01-16T12:47:57;2.77;;;1.50;;
4555;SDS011;2290;48.674;9.018;2024-01-16T12:50:25;3.00;;;1.47;;
4555;SDS011;2290;48.674;9.018;2024-01-16T12:53:11;2.07;;;1.70;;
4555;SDS011;2290;48.674;9.018;2024-01-16T12:55:40;2.23;;;2.03;;
4555;SDS011;2290;48.674;9.018;2024-01-16T12:58:38;2.23;;;1.67;;
4555;SDS011;2290;48.674;9.018;2024-01-16T13:01:04;1.70;;;1.60;;
4555;SDS011;2290;48.674;9.018;2024-01-16T13:03:49;5.90;;;1.97;;
4555;SDS011;2290;48.674;9.018;2024-01-16T13:06:19;2.47;;;1.57;;
4555;SDS011;2290;48.674;9.018;2024-01-16T13:08:46;2.43;;;1.70;;
4555;SDS011;2290;48.674;9.018;2024-01-16T13:11:12;3.63;;;1.63;;
4555;SDS011;2290;48.674;9.018;2024-01-16T13:13:44;1.50;;;1.30;;
4555;SDS011;2290;48.674;9.018;2024-01-16T13:16:13;2.43;;;1.70;;
4555;SDS011;2290;48.674;9.018;2024-01-16T13:18:40;3.73;;;1.70;;
4555;SDS011;2290;48.674;9.018;2024-01-16T13:21:05;3.67;;;1.83;;
4555;SDS011;2290;48.674;9.018;2024-01-16T13:23:31;2.03;;;1.60;;
4555;SDS011;2290;48.674;9.018;2024-01-16T13:25:57;1.87;;;1.53;;
4555;SDS011;2290;48.674;9.018;2024-01-16T13:28:25;2.70;;;1.30;;
4555;SDS011;2290;48.674;9.018;2024-01-16T13:30:52;2.80;;;1.50;;
4555;SDS011;2290;48.674;9.018;2024-01-16T13:33:19;3.60;;;1.70;;
4555;SDS011;2290;48.674;9.018;2024-01-16T13:35:45;1.70;;;1.57;;
4555;SDS011;2290;48.674;9.018;2024-01-16T13:38:11;2.13;;;1.50;;
4555;SDS011;2290;48.674;9.018;2024-01-16T13:40:40;5.00;;;1.50;;
4555;SDS011;2290;48.674;9.018;2024-01-16T13:43:08;2.17;;;1.63;;
4555;SDS011;2290;48.674;9.018;2024-01-16T13:45:34;1.80;;;1.60;;
4555;SDS011;2290;48.674;9.018;2024-01-16T13:48:00;2.73;;;1.67;;
4555;SDS011;2290;48.674;9.018;2024-01-16T13:50:27;4.80;;;1.70;;
4555;SDS011;2290;48.674;9.018;2024-01-16T13:52:52;2.17;;;1.63;;
4555;SDS011;2290;48.674;9.018;2024-01-16T13:55:21;2.70;;;1.60;;
4555;SDS011;2290;48.674;9.018;2024-01-16T13:57:47;5.30;;;2.50;;
4555;SDS011;2290;48.674;9.018;2024-01-16T14:00:13;2.20;;;1.60;;
4555;SDS011;2290;48.674;9.018;2024-01-16T14:02:41;3.20;;;1.97;;
4555;SDS011;2290;48.674;9.018;2024-01-16T14:05:10;2.10;;;1.83;;
4555;SDS011;2290;48.674;9.018;2024-01-16T14:07:40;5.03;;;1.90;;
4555;SDS011;2290;48.674;9.018;2024-01-16T14:10:09;2.50;;;1.90;;
4555;SDS011;2290;48.674;9.018;2024-01-16T14:12:37;2.70;;;1.90;;
4555;SDS011;2290;48.674;9.018;2024-01-16T14:15:10;2.83;;;2.20;;
4555;SDS011;2290;48.674;9.018;2024-01-16T14:17:44;3.50;;;1.80;;
4555;SDS011;2290;48.674;9.018;2024-01-16T14:20:11;2.80;;;2.10;;
4555;SDS011;2290;48.674;9.018;2024-01-16T14:22:38;3.83;;;2.27;;
4555;SDS011;2290;48.674;9.018;2024-01-16T14:25:05;3.83;;;1.70;;
4555;SDS011;2290;48.674;9.018;2024-01-16T14:27:36;3.03;;;2.00;;
4555;SDS011;2290;48.674;9.018;2024-01-16T14:30:04;2.53;;;2.17;;
4555;SDS011;2290;48.674;9.018;2024-01-16T14:32:32;3.57;;;2.50;;
4555;SDS011;2290;48.674;9.018;2024-01-16T14:34:58;3.67;;;2.17;;
4555;SDS011;2290;48.674;9.018;2024-01-16T14:37:23;4.63;;;2.20;;
4555;SDS011;2290;48.674;9.018;2024-01-16T14:39:50;7.33;;;2.50;;
4555;SDS011;2290;48.674;9.018;2024-01-16T14:42:16;2.90;;;2.60;;
4555;SDS011;2290;48.674;9.018;2024-01-16T14:44:41;4.60;;;2.70;;
4555;SDS011;2290;48.674;9.018;2024-01-16T14:47:07;5.90;;;3.30;;
4555;SDS011;2290;48.674;9.018;2024-01-16T14:49:34;3.63;;;2.70;;
4555;SDS011;2290;48.674;9.018;2024-01-16T14:51:59;6.67;;;2.60;;
4555;SDS011;2290;48.674;9.018;2024-01-16T14:54:26;7.63;;;2.80;;
4555;SDS011;2290;48.674;9.018;2024-01-16T14:56:51;4.40;;;2.90;;
4555;SDS011;2290;48.674;9.018;2024-01-16T14:59:17;3.90;;;2.50;;
4555;SDS011;2290;48.674;9.018;2024-01-16T15:01:43;5.50;;;2.67;;
4555;SDS011;2290;48.674;9.018;2024-01-16T15:04:09;4.40;;;2.80;;
4555;SDS011;2290;48.674;9.018;2024-01-16T15:06:35;3.03;;;2.50;;
4555;SDS011;2290;48.674;9.018;2024-01-16T15:09:00;3.67;;;2.67;;
4555;SDS011;2290;48.674;9.018;2024-01-16T15:11:26;4.43;;;3.03;;
4555;SDS011;2290;48.674;9.018;2024-01-16T15:13:52;5.40;;;2.70;;
4555;SDS011;2290;48.674;9.018;2024-01-16T15:16:17;9.20;;;3.30;;
4555;SDS011;2290;48.674;9.018;2024-01-16T15:18:43;5.20;;;3.20;;
4555;SDS011;2290;48.674;9.018;2024-01-16T15:21:09;5.90;;;2.67;;
4555;SDS011;2290;48.674;9.018;2024-01-16T15:23:34;6.67;;;3.10;;
4555;SDS011;2290;48.674;9.018;2024-01-16T15:26:00;4.43;;;2.90;;
4555;SDS011;2290;48.674;9.018;2024-01-16T15:28:28;3.67;;;2.73;;
4555;SDS011;2290;48.674;9.018;2024-01-16T15:30:56;4.43;;;3.23;;
4555;SDS011;2290;48.674;9.018;2024-01-16T15:33:22;6.00;;;3.30;;
4555;SDS011;2290;48.674;9.018;2024-01-16T15:35:48;5.53;;;2.97;;
4555;SDS011;2290;48.674;9.018;2024-01-16T15:38:13;5.17;;;3.00;;
4555;SDS011;2290;48.674;9.018;2024-01-16T15:40:39;2.90;;;2.37;;
4555;SDS011;2290;48.674;9.018;2024-01-16T15:43:05;3.67;;;2.97;;
4555;SDS011;2290;48.674;9.018;2024-01-16T15:45:30;3.97;;;2.60;;
4555;SDS011;2290;48.674;9.018;2024-01-16T15:47:56;8.83;;;3.30;;
4555;SDS011;2290;48.674;9.018;2024-01-16T15:50:22;4.30;;;3.00;;
4555;SDS011;2290;48.674;9.018;2024-01-16T15:52:47;5.13;;;2.67;;
4555;SDS011;2290;48.674;9.018;2024-01-16T15:55:14;3.23;;;2.60;;
4555;SDS011;2290;48.674;9.018;2024-01-16T15:57:40;4.47;;;2.47;;
4555;SDS011;2290;48.674;9.018;2024-01-16T16:00:07;6.00;;;3.37;;
4555;SDS011;2290;48.674;9.018;2024-01-16T16:02:35;4.03;;;2.53;;
4555;SDS011;2290;48.674;9.018;2024-01-16T16:05:02;6.40;;;2.90;;